sensor_id;sensor_type;location;lat;lon;timestamp;temperature;humidity
9329;DHT22;4703;48.748;19.142;2024-01-15T06:28:12;0.00;99.90
9329;DHT22;4703;48.748;19.142;2024-01-15T06:34:59;-1.00;99.90
9329;DHT22;4703;48.748;19.142;2024-01-15T06:38:01;0.70;99.90
9329;DHT22;4703;48.748;19.142;2024-01-15T06:40:45;0.40;99.90
9329;DHT22;4703;48.748;19.142;2024-01-15T06:43:43;0.50;99.90
9329;DHT22;4703;48.748;19.142;2024-01-15T06:46:10;-1.30;99.90
9329;DHT22;4703;48.748;19.142;2024-01-15T06:48:44;-1.30;99.90
9329;DHT22;4703;48.748;19.142;2024-01-15T06:51:15;-1.40;99.90
9329;DHT22;4703;48.748;19.142;2024-01-15T06:53:44;-1.30;99.90
9329;DHT22;4703;48.748;19.142;2024-01-15T06:56:16;-1.30;99.90
9329;DHT22;4703;48.748;19.142;2024-01-15T06:58:43;-1.30;99.90
9329;DHT22;4703;48.748;19.142;2024-01-15T07:08:58;-1.10;99.90
9329;DHT22;4703;48.748;19.142;2024-01-15T07:11:48;-1.20;99.90
9329;DHT22;4703;48.748;19.142;2024-01-15T07:14:18;-1.10;99.90
9329;DHT22;4703;48.748;19.142;2024-01-15T08:30:00;0.00;99.90
9329;DHT22;4703;48.748;19.142;2024-01-15T08:32:27;-0.20;99.90
9329;DHT22;4703;48.748;19.142;2024-01-15T08:34:54;-0.10;99.90
9329;DHT22;4703;48.748;19.142;2024-01-15T08:37:21;-0.10;99.90
9329;DHT22;4703;48.748;19.142;2024-01-15T08:39:48;-0.10;99.90
9329;DHT22;4703;48.748;19.142;2024-01-15T08:42:18;-0.10;99.90
9329;DHT22;4703;48.748;19.142;2024-01-15T08:44:45;-0.10;99.90
9329;DHT22;4703;48.748;19.142;2024-01-15T08:47:15;1.70;99.90
9329;DHT22;4703;48.748;19.142;2024-01-15T08:49:42;2.30;99.90
9329;DHT22;4703;48.748;19.142;2024-01-15T08:52:11;-0.10;99.90
9329;DHT22;4703;48.748;19.142;2024-01-15T08:54:37;0.00;99.90
9329;DHT22;4703;48.748;19.142;2024-01-15T08:57:04;0.00;99.90
9329;DHT22;4703;48.748;19.142;2024-01-15T08:59:31;0.00;99.90
9329;DHT22;4703;48.748;19.142;2024-01-15T09:01:58;0.00;99.90
9329;DHT22;4703;48.748;19.142;2024-01-15T09:04:26;0.00;99.90
9329;DHT22;4703;48.748;19.142;2024-01-15T09:06:53;-0.10;99.90
9329;DHT22;4703;48.748;19.142;2024-01-15T09:09:20;0.00;99.90
9329;DHT22;4703;48.748;19.142;2024-01-15T09:11:47;0.00;99.90
9329;DHT22;4703;48.748;19.142;2024-01-15T09:14:14;0.00;99.90
9329;DHT22;4703;48.748;19.142;2024-01-15T09:16:45;0.00;99.90
9329;DHT22;4703;48.748;19.142;2024-01-15T09:19:12;0.00;99.90
9329;DHT22;4703;48.748;19.142;2024-01-15T09:21:40;0.00;99.90
9329;DHT22;4703;48.748;19.142;2024-01-15T09:24:07;-0.10;99.90
9329;DHT22;4703;48.748;19.142;2024-01-15T09:26:34;-0.10;99.90
9329;DHT22;4703;48.748;19.142;2024-01-15T09:29:01;-0.10;99.90
9329;DHT22;4703;48.748;19.142;2024-01-15T09:31:29;-0.10;99.90
9329;DHT22;4703;48.748;19.142;2024-01-15T09:33:56;-0.10;99.90
9329;DHT22;4703;48.748;19.142;2024-01-15T09:36:25;-0.10;99.90
9329;DHT22;4703;48.748;19.142;2024-01-15T09:38:52;-0.10;99.90
9329;DHT22;4703;48.748;19.142;2024-01-15T09:41:19;-0.10;99.90
9329;DHT22;4703;48.748;19.142;2024-01-15T09:43:47;0.00;99.90
9329;DHT22;4703;48.748;19.142;2024-01-15T09:46:14;0.00;99.90
9329;DHT22;4703;48.748;19.142;2024-01-15T09:48:42;0.80;99.90
9329;DHT22;4703;48.748;19.142;2024-01-15T09:51:09;0.00;99.90
9329;DHT22;4703;48.748;19.142;2024-01-15T09:53:37;1.30;99.90
9329;DHT22;4703;48.748;19.142;2024-01-15T09:56:05;0.00;99.90
9329;DHT22;4703;48.748;19.142;2024-01-15T09:58:32;0.00;99.90
9329;DHT22;4703;48.748;19.142;2024-01-15T10:01:01;0.00;99.90
9329;DHT22;4703;48.748;19.142;2024-01-15T10:03:34;-0.10;99.90
9329;DHT22;4703;48.748;19.142;2024-01-15T10:06:01;-0.10;99.90
9329;DHT22;4703;48.748;19.142;2024-01-15T10:08:29;0.00;99.90
9329;DHT22;4703;48.748;19.142;2024-01-15T10:10:56;0.00;99.90
9329;DHT22;4703;48.748;19.142;2024-01-15T10:13:23;0.00;99.90
9329;DHT22;4703;48.748;19.142;2024-01-15T10:15:50;0.00;99.90
9329;DHT22;4703;48.748;19.142;2024-01-15T10:18:18;-0.10;99.90
9329;DHT22;4703;48.748;19.142;2024-01-15T10:20:45;0.00;99.90
9329;DHT22;4703;48.748;19.142;2024-01-15T10:23:13;0.00;99.90
9329;DHT22;4703;48.748;19.142;2024-01-15T10:25:44;0.00;99.90
9329;DHT22;4703;48.748;19.142;2024-01-15T10:28:11;-0.10;99.90
9329;DHT22;4703;48.748;19.142;2024-01-15T10:30:37;-0.10;99.90
9329;DHT22;4703;48.748;19.142;2024-01-15T10:33:05;0.10;99.90
9329;DHT22;4703;48.748;19.142;2024-01-15T10:35:34;0.00;99.90
9329;DHT22;4703;48.748;19.142;2024-01-15T10:38:02;0.10;99.90
9329;DHT22;4703;48.748;19.142;2024-01-15T10:40:29;0.10;99.90
9329;DHT22;4703;48.748;19.142;2024-01-15T10:42:57;0.10;99.90
9329;DHT22;4703;48.748;19.142;2024-01-15T10:45:24;0.10;99.90
9329;DHT22;4703;48.748;19.142;2024-01-15T10:47:51;0.20;99.90
9329;DHT22;4703;48.748;19.142;2024-01-15T10:50:20;0.10;99.90
9329;DHT22;4703;48.748;19.142;2024-01-15T10:52:48;0.20;99.90
9329;DHT22;4703;48.748;19.142;2024-01-15T10:55:15;0.30;99.90
9329;DHT22;4703;48.748;19.142;2024-01-15T10:57:48;0.30;99.90
9329;DHT22;4703;48.748;19.142;2024-01-15T11:00:16;0.40;99.90
9329;DHT22;4703;48.748;19.142;2024-01-15T11:02:44;0.40;99.90
9329;DHT22;4703;48.748;19.142;2024-01-15T11:05:12;0.40;99.90
9329;DHT22;4703;48.748;19.142;2024-01-15T11:07:40;0.50;99.90
9329;DHT22;4703;48.748;19.142;2024-01-15T11:10:08;-1.60;99.90
9329;DHT22;4703;48.748;19.142;2024-01-15T11:13:40;0.50;99.90
9329;DHT22;4703;48.748;19.142;2024-01-15T11:16:09;0.40;99.90
9329;DHT22;4703;48.748;19.142;2024-01-15T11:18:40;0.50;99.90
9329;DHT22;4703;48.748;19.142;2024-01-15T11:23:46;0.60;99.90
9329;DHT22;4703;48.748;19.142;2024-01-15T11:26:43;0.60;99.90
9329;DHT22;4703;48.748;19.142;2024-01-15T11:32:30;0.60;99.90
9329;DHT22;4703;48.748;19.142;2024-01-15T11:34:54;0.70;99.90
9329;DHT22;4703;48.748;19.142;2024-01-15T11:43:00;1.00;99.90
9329;DHT22;4703;48.748;19.142;2024-01-15T11:45:28;1.00;99.90
9329;DHT22;4703;48.748;19.142;2024-01-15T11:48:16;1.10;99.90
9329;DHT22;4703;48.748;19.142;2024-01-15T11:50:47;1.20;99.90
9329;DHT22;4703;48.748;19.142;2024-01-15T11:53:55;1.30;99.90
9329;DHT22;4703;48.748;19.142;2024-01-15T11:56:24;1.50;99.90
9329;DHT22;4703;48.748;19.142;2024-01-15T11:58:51;1.60;99.80
9329;DHT22;4703;48.748;19.142;2024-01-15T12:01:18;1.70;99.40
9329;DHT22;4703;48.748;19.142;2024-01-15T12:03:47;1.80;99.10
9329;DHT22;4703;48.748;19.142;2024-01-15T12:06:14;1.90;98.50
9329;DHT22;4703;48.748;19.142;2024-01-15T12:08:41;2.10;98.70
9329;DHT22;4703;48.748;19.142;2024-01-15T12:11:12;2.20;97.90
9329;DHT22;4703;48.748;19.142;2024-01-15T12:13:40;2.30;96.90
9329;DHT22;4703;48.748;19.142;2024-01-15T12:16:07;2.30;96.80
9329;DHT22;4703;48.748;19.142;2024-01-15T12:18:35;3.60;97.10
9329;DHT22;4703;48.748;19.142;2024-01-15T12:21:04;2.20;96.90
9329;DHT22;4703;48.748;19.142;2024-01-15T12:23:31;2.20;96.90
9329;DHT22;4703;48.748;19.142;2024-01-15T12:25:58;2.10;96.70
9329;DHT22;4703;48.748;19.142;2024-01-15T12:28:27;2.00;96.70
9329;DHT22;4703;48.748;19.142;2024-01-15T12:30:55;2.10;96.50
9329;DHT22;4703;48.748;19.142;2024-01-15T12:33:22;2.00;96.30
9329;DHT22;4703;48.748;19.142;2024-01-15T12:35:53;2.00;96.30
9329;DHT22;4703;48.748;19.142;2024-01-15T12:38:20;2.00;96.60
9329;DHT22;4703;48.748;19.142;2024-01-15T12:40:48;2.20;96.50
9329;DHT22;4703;48.748;19.142;2024-01-15T12:43:15;2.30;96.40
9329;DHT22;4703;48.748;19.142;2024-01-15T12:45:42;2.50;96.50
9329;DHT22;4703;48.748;19.142;2024-01-15T12:48:10;2.70;96.40
9329;DHT22;4703;48.748;19.142;2024-01-15T12:50:38;3.00;96.20
9329;DHT22;4703;48.748;19.142;2024-01-15T12:53:05;3.20;95.50
9329;DHT22;4703;48.748;19.142;2024-01-15T12:55:32;3.30;95.10
9329;DHT22;4703;48.748;19.142;2024-01-15T12:58:01;3.30;94.60
9329;DHT22;4703;48.748;19.142;2024-01-15T13:00:28;3.30;94.60
9329;DHT22;4703;48.748;19.142;2024-01-15T13:02:55;3.40;94.70
9329;DHT22;4703;48.748;19.142;2024-01-15T13:05:25;1.00;93.60
9329;DHT22;4703;48.748;19.142;2024-01-15T13:07:54;5.70;95.40
9329;DHT22;4703;48.748;19.142;2024-01-15T13:10:21;3.50;94.50
9329;DHT22;4703;48.748;19.142;2024-01-15T13:12:51;3.50;94.10
9329;DHT22;4703;48.748;19.142;2024-01-15T13:15:18;6.10;94.80
9329;DHT22;4703;48.748;19.142;2024-01-15T13:17:45;3.40;93.80
9329;DHT22;4703;48.748;19.142;2024-01-15T13:20:12;3.30;94.00
9329;DHT22;4703;48.748;19.142;2024-01-15T13:22:40;3.30;94.10
9329;DHT22;4703;48.748;19.142;2024-01-15T13:25:10;3.30;93.90
9329;DHT22;4703;48.748;19.142;2024-01-15T13:27:38;3.30;94.00
9329;DHT22;4703;48.748;19.142;2024-01-15T13:30:07;3.40;94.40
9329;DHT22;4703;48.748;19.142;2024-01-15T13:32:35;3.50;93.70
9329;DHT22;4703;48.748;19.142;2024-01-15T13:35:03;3.60;93.30
9329;DHT22;4703;48.748;19.142;2024-01-15T13:37:32;3.70;93.40
9329;DHT22;4703;48.748;19.142;2024-01-15T13:40:00;3.90;93.10
9329;DHT22;4703;48.748;19.142;2024-01-15T13:42:27;4.10;92.60
9329;DHT22;4703;48.748;19.142;2024-01-15T13:44:54;4.20;92.50
9329;DHT22;4703;48.748;19.142;2024-01-15T13:47:21;4.30;92.90
9329;DHT22;4703;48.748;19.142;2024-01-15T13:49:49;4.60;93.10
9329;DHT22;4703;48.748;19.142;2024-01-15T13:52:16;5.10;92.00
9329;DHT22;4703;48.748;19.142;2024-01-15T13:54:43;5.40;91.00
9329;DHT22;4703;48.748;19.142;2024-01-15T13:57:19;5.40;90.10
9329;DHT22;4703;48.748;19.142;2024-01-15T13:59:47;6.70;90.20
9329;DHT22;4703;48.748;19.142;2024-01-15T14:02:16;5.00;89.20
9329;DHT22;4703;48.748;19.142;2024-01-15T14:04:48;6.40;90.70
9329;DHT22;4703;48.748;19.142;2024-01-15T14:07:16;4.50;90.60
9329;DHT22;4703;48.748;19.142;2024-01-15T14:09:43;4.30;90.60
9329;DHT22;4703;48.748;19.142;2024-01-15T14:12:10;4.10;91.00
9329;DHT22;4703;48.748;19.142;2024-01-15T14:14:38;4.10;91.10
9329;DHT22;4703;48.748;19.142;2024-01-15T14:17:06;3.90;90.60
9329;DHT22;4703;48.748;19.142;2024-01-15T14:19:33;3.70;90.70
9329;DHT22;4703;48.748;19.142;2024-01-15T14:22:01;3.50;90.80
9329;DHT22;4703;48.748;19.142;2024-01-15T14:24:28;3.30;91.10
9329;DHT22;4703;48.748;19.142;2024-01-15T14:26:55;3.10;91.60
9329;DHT22;4703;48.748;19.142;2024-01-15T14:29:23;2.90;91.70
9329;DHT22;4703;48.748;19.142;2024-01-15T14:31:53;2.80;91.90
9329;DHT22;4703;48.748;19.142;2024-01-15T14:34:20;3.50;92.60
9329;DHT22;4703;48.748;19.142;2024-01-15T14:36:50;2.60;92.50
9329;DHT22;4703;48.748;19.142;2024-01-15T14:39:21;2.50;92.60
9329;DHT22;4703;48.748;19.142;2024-01-15T14:41:49;2.40;92.90
9329;DHT22;4703;48.748;19.142;2024-01-15T14:44:16;2.30;93.00
9329;DHT22;4703;48.748;19.142;2024-01-15T14:46:43;2.20;93.40
9329;DHT22;4703;48.748;19.142;2024-01-15T14:49:10;2.00;93.60
9329;DHT22;4703;48.748;19.142;2024-01-15T14:51:38;2.00;93.80
9329;DHT22;4703;48.748;19.142;2024-01-15T14:54:05;1.90;94.10
9329;DHT22;4703;48.748;19.142;2024-01-15T14:56:32;1.80;94.30
9329;DHT22;4703;48.748;19.142;2024-01-15T14:58:59;1.70;94.40
9329;DHT22;4703;48.748;19.142;2024-01-15T15:01:26;1.70;94.50
9329;DHT22;4703;48.748;19.142;2024-01-15T15:03:53;1.60;94.80
9329;DHT22;4703;48.748;19.142;2024-01-15T15:06:20;1.50;94.50
9329;DHT22;4703;48.748;19.142;2024-01-15T15:08:48;1.50;94.50
9329;DHT22;4703;48.748;19.142;2024-01-15T15:11:15;1.60;94.60
9329;DHT22;4703;48.748;19.142;2024-01-15T15:13:42;1.50;94.70
9329;DHT22;4703;48.748;19.142;2024-01-15T15:16:12;3.20;95.50
9329;DHT22;4703;48.748;19.142;2024-01-15T15:18:41;1.50;94.80
9329;DHT22;4703;48.748;19.142;2024-01-15T15:21:13;1.50;94.90
9329;DHT22;4703;48.748;19.142;2024-01-15T15:23:41;1.50;95.20
9329;DHT22;4703;48.748;19.142;2024-01-15T15:26:09;1.40;94.70
9329;DHT22;4703;48.748;19.142;2024-01-15T15:28:36;1.50;94.30
9329;DHT22;4703;48.748;19.142;2024-01-15T15:31:04;1.50;94.30
9329;DHT22;4703;48.748;19.142;2024-01-15T15:33:35;1.40;94.50
9329;DHT22;4703;48.748;19.142;2024-01-15T15:36:03;1.40;94.00
9329;DHT22;4703;48.748;19.142;2024-01-15T15:38:32;1.40;94.20
9329;DHT22;4703;48.748;19.142;2024-01-15T15:40:59;1.40;94.10
9329;DHT22;4703;48.748;19.142;2024-01-15T15:43:28;1.30;93.60
9329;DHT22;4703;48.748;19.142;2024-01-15T15:45:59;1.30;93.60
9329;DHT22;4703;48.748;19.142;2024-01-15T15:48:26;1.30;93.60
9329;DHT22;4703;48.748;19.142;2024-01-15T15:50:54;4.00;94.80
9329;DHT22;4703;48.748;19.142;2024-01-15T15:53:23;1.30;93.40
9329;DHT22;4703;48.748;19.142;2024-01-15T15:55:50;2.10;93.40
9329;DHT22;4703;48.748;19.142;2024-01-15T15:58:17;1.30;93.10
9329;DHT22;4703;48.748;19.142;2024-01-15T16:00:44;1.40;93.10
9329;DHT22;4703;48.748;19.142;2024-01-15T16:03:11;3.60;93.90
9329;DHT22;4703;48.748;19.142;2024-01-15T16:05:39;1.30;93.30
9329;DHT22;4703;48.748;19.142;2024-01-15T16:08:17;1.30;93.40
9329;DHT22;4703;48.748;19.142;2024-01-15T16:10:46;1.30;93.00
9329;DHT22;4703;48.748;19.142;2024-01-15T16:13:15;1.30;93.20
9329;DHT22;4703;48.748;19.142;2024-01-15T16:15:42;1.30;93.20
9329;DHT22;4703;48.748;19.142;2024-01-15T16:18:09;2.60;94.00
9329;DHT22;4703;48.748;19.142;2024-01-15T16:20:56;1.10;93.30
9329;DHT22;4703;48.748;19.142;2024-01-15T16:23:43;1.30;93.20
9329;DHT22;4703;48.748;19.142;2024-01-15T16:26:30;1.30;93.20
9329;DHT22;4703;48.748;19.142;2024-01-15T16:28:58;1.30;93.20
9329;DHT22;4703;48.748;19.142;2024-01-15T16:31:28;3.50;94.10
9329;DHT22;4703;48.748;19.142;2024-01-15T16:33:55;1.20;93.10
9329;DHT22;4703;48.748;19.142;2024-01-15T16:36:30;1.70;93.30
9329;DHT22;4703;48.748;19.142;2024-01-15T16:38:58;1.20;93.10
9329;DHT22;4703;48.748;19.142;2024-01-15T16:41:25;1.20;93.10
9329;DHT22;4703;48.748;19.142;2024-01-15T16:43:52;1.30;93.30
9329;DHT22;4703;48.748;19.142;2024-01-15T16:46:19;1.20;93.40
9329;DHT22;4703;48.748;19.142;2024-01-15T16:48:46;1.30;93.30
9329;DHT22;4703;48.748;19.142;2024-01-15T16:51:13;1.20;93.20
9329;DHT22;4703;48.748;19.142;2024-01-15T16:53:40;1.30;93.50
9329;DHT22;4703;48.748;19.142;2024-01-15T16:56:08;1.20;93.40
9329;DHT22;4703;48.748;19.142;2024-01-15T16:58:35;1.20;93.40
9329;DHT22;4703;48.748;19.142;2024-01-15T17:01:02;1.20;93.40
9329;DHT22;4703;48.748;19.142;2024-01-15T17:03:29;1.30;93.40
9329;DHT22;4703;48.748;19.142;2024-01-15T17:05:56;1.30;93.60
9329;DHT22;4703;48.748;19.142;2024-01-15T17:08:23;1.30;93.60
9329;DHT22;4703;48.748;19.142;2024-01-15T17:10:51;1.30;93.60
9329;DHT22;4703;48.748;19.142;2024-01-15T17:13:18;1.30;93.80
9329;DHT22;4703;48.748;19.142;2024-01-15T17:15:45;1.30;93.80
9329;DHT22;4703;48.748;19.142;2024-01-15T17:18:12;1.20;93.80
9329;DHT22;4703;48.748;19.142;2024-01-15T17:20:39;1.20;93.80
9329;DHT22;4703;48.748;19.142;2024-01-15T17:23:09;1.20;93.80
9329;DHT22;4703;48.748;19.142;2024-01-15T17:25:36;1.20;93.90
9329;DHT22;4703;48.748;19.142;2024-01-15T17:28:03;2.20;94.30
9329;DHT22;4703;48.748;19.142;2024-01-15T17:30:30;1.20;93.90
9329;DHT22;4703;48.748;19.142;2024-01-15T17:32:57;1.20;94.00
9329;DHT22;4703;48.748;19.142;2024-01-15T17:35:26;1.20;94.20
9329;DHT22;4703;48.748;19.142;2024-01-15T17:37:53;1.20;94.30
9329;DHT22;4703;48.748;19.142;2024-01-15T17:40:20;1.20;94.20
9329;DHT22;4703;48.748;19.142;2024-01-15T17:42:49;1.20;94.40
9329;DHT22;4703;48.748;19.142;2024-01-15T17:45:16;1.20;94.40
9329;DHT22;4703;48.748;19.142;2024-01-15T17:47:45;1.20;94.10
9329;DHT22;4703;48.748;19.142;2024-01-15T17:50:12;1.20;93.90
9329;DHT22;4703;48.748;19.142;2024-01-15T17:52:39;1.10;93.90
9329;DHT22;4703;48.748;19.142;2024-01-15T17:55:07;1.10;93.70
9329;DHT22;4703;48.748;19.142;2024-01-15T17:57:35;1.20;93.90
9329;DHT22;4703;48.748;19.142;2024-01-15T18:00:03;1.20;95.50
9329;DHT22;4703;48.748;19.142;2024-01-15T18:02:31;1.10;94.80
9329;DHT22;4703;48.748;19.142;2024-01-15T18:04:58;1.20;94.60
9329;DHT22;4703;48.748;19.142;2024-01-15T18:07:25;1.10;94.30
9329;DHT22;4703;48.748;19.142;2024-01-15T18:09:53;1.20;94.20
9329;DHT22;4703;48.748;19.142;2024-01-15T18:12:20;1.20;94.20
9329;DHT22;4703;48.748;19.142;2024-01-15T18:14:47;1.10;94.50
9329;DHT22;4703;48.748;19.142;2024-01-15T18:17:14;1.10;94.70
9329;DHT22;4703;48.748;19.142;2024-01-15T18:19:42;1.00;94.40
9329;DHT22;4703;48.748;19.142;2024-01-15T18:22:09;1.10;94.20
9329;DHT22;4703;48.748;19.142;2024-01-15T18:24:36;1.10;94.20
9329;DHT22;4703;48.748;19.142;2024-01-15T18:27:03;1.00;94.20
9329;DHT22;4703;48.748;19.142;2024-01-15T18:29:31;1.10;94.40
9329;DHT22;4703;48.748;19.142;2024-01-15T18:31:58;1.20;94.40
9329;DHT22;4703;48.748;19.142;2024-01-15T18:34:25;1.10;94.40
9329;DHT22;4703;48.748;19.142;2024-01-15T18:36:52;3.90;95.60
9329;DHT22;4703;48.748;19.142;2024-01-15T18:39:20;1.10;94.30
9329;DHT22;4703;48.748;19.142;2024-01-15T18:41:47;2.40;95.00
9329;DHT22;4703;48.748;19.142;2024-01-15T18:44:14;1.10;94.60
9329;DHT22;4703;48.748;19.142;2024-01-15T18:46:41;1.20;94.60
9329;DHT22;4703;48.748;19.142;2024-01-15T18:49:10;1.20;94.60
9329;DHT22;4703;48.748;19.142;2024-01-15T18:51:38;1.60;94.90
9329;DHT22;4703;48.748;19.142;2024-01-15T18:54:06;1.20;95.10
9329;DHT22;4703;48.748;19.142;2024-01-15T18:56:33;1.20;94.90
9329;DHT22;4703;48.748;19.142;2024-01-15T18:59:05;1.10;94.80
9329;DHT22;4703;48.748;19.142;2024-01-15T19:01:32;1.10;95.00
9329;DHT22;4703;48.748;19.142;2024-01-15T19:03:59;1.10;94.90
9329;DHT22;4703;48.748;19.142;2024-01-15T19:06:26;1.20;94.70
9329;DHT22;4703;48.748;19.142;2024-01-15T19:08:54;1.20;94.60
9329;DHT22;4703;48.748;19.142;2024-01-15T19:11:21;1.20;94.90
9329;DHT22;4703;48.748;19.142;2024-01-15T19:13:52;1.10;95.00
9329;DHT22;4703;48.748;19.142;2024-01-15T19:16:19;1.20;94.80
9329;DHT22;4703;48.748;19.142;2024-01-15T19:18:53;1.20;94.70
9329;DHT22;4703;48.748;19.142;2024-01-15T19:21:20;1.20;94.60
9329;DHT22;4703;48.748;19.142;2024-01-15T19:23:47;1.10;94.60
9329;DHT22;4703;48.748;19.142;2024-01-15T19:26:20;1.10;94.70
9329;DHT22;4703;48.748;19.142;2024-01-15T19:28:48;1.10;94.50
9329;DHT22;4703;48.748;19.142;2024-01-15T19:31:15;1.00;94.30
9329;DHT22;4703;48.748;19.142;2024-01-15T19:33:43;1.00;94.50
9329;DHT22;4703;48.748;19.142;2024-01-15T19:36:24;1.10;94.40
9329;DHT22;4703;48.748;19.142;2024-01-15T19:38:53;1.10;94.30
9329;DHT22;4703;48.748;19.142;2024-01-15T19:41:20;1.00;94.20
9329;DHT22;4703;48.748;19.142;2024-01-15T19:43:51;1.00;93.90
9329;DHT22;4703;48.748;19.142;2024-01-15T19:46:18;1.00;94.00
9329;DHT22;4703;48.748;19.142;2024-01-15T19:48:46;0.90;94.10
9329;DHT22;4703;48.748;19.142;2024-01-15T19:51:13;0.80;94.10
9329;DHT22;4703;48.748;19.142;2024-01-15T19:53:43;0.90;94.20
9329;DHT22;4703;48.748;19.142;2024-01-15T19:56:10;2.80;94.90
9329;DHT22;4703;48.748;19.142;2024-01-15T19:58:44;0.80;94.10
9329;DHT22;4703;48.748;19.142;2024-01-15T20:01:11;0.80;94.50
9329;DHT22;4703;48.748;19.142;2024-01-15T20:03:38;0.70;94.20
9329;DHT22;4703;48.748;19.142;2024-01-15T20:06:07;0.80;94.30
9329;DHT22;4703;48.748;19.142;2024-01-15T20:08:38;0.80;94.50
9329;DHT22;4703;48.748;19.142;2024-01-15T20:11:09;0.80;94.60
9329;DHT22;4703;48.748;19.142;2024-01-15T20:13:37;0.80;94.50
9329;DHT22;4703;48.748;19.142;2024-01-15T20:16:06;0.60;94.50
9329;DHT22;4703;48.748;19.142;2024-01-15T20:18:35;0.80;94.60
9329;DHT22;4703;48.748;19.142;2024-01-15T20:21:02;0.80;94.60
9329;DHT22;4703;48.748;19.142;2024-01-15T20:23:32;0.80;94.70
9329;DHT22;4703;48.748;19.142;2024-01-15T20:26:20;0.70;94.50
9329;DHT22;4703;48.748;19.142;2024-01-15T20:28:47;0.70;94.60
9329;DHT22;4703;48.748;19.142;2024-01-15T20:31:15;0.70;94.40
9329;DHT22;4703;48.748;19.142;2024-01-15T20:33:42;2.60;95.10
9329;DHT22;4703;48.748;19.142;2024-01-15T20:36:09;0.70;94.20
9329;DHT22;4703;48.748;19.142;2024-01-15T20:38:38;0.60;94.20
9329;DHT22;4703;48.748;19.142;2024-01-15T20:41:06;0.60;94.20
9329;DHT22;4703;48.748;19.142;2024-01-15T20:43:33;0.70;94.70
9329;DHT22;4703;48.748;19.142;2024-01-15T20:46:02;1.90;94.80
9329;DHT22;4703;48.748;19.142;2024-01-15T20:48:29;0.60;94.30
9329;DHT22;4703;48.748;19.142;2024-01-15T20:50:57;0.60;94.30
9329;DHT22;4703;48.748;19.142;2024-01-15T20:53:25;0.60;94.30
9329;DHT22;4703;48.748;19.142;2024-01-15T20:55:52;0.60;94.40
9329;DHT22;4703;48.748;19.142;2024-01-15T20:58:22;0.60;94.50
9329;DHT22;4703;48.748;19.142;2024-01-15T21:00:50;0.60;94.60
9329;DHT22;4703;48.748;19.142;2024-01-15T21:03:17;0.60;94.60
9329;DHT22;4703;48.748;19.142;2024-01-15T21:05:45;0.60;94.60
9329;DHT22;4703;48.748;19.142;2024-01-15T21:08:14;0.50;94.70
9329;DHT22;4703;48.748;19.142;2024-01-15T21:10:41;0.50;94.70
9329;DHT22;4703;48.748;19.142;2024-01-15T21:13:08;0.60;94.90
9329;DHT22;4703;48.748;19.142;2024-01-15T21:15:35;0.50;95.00
9329;DHT22;4703;48.748;19.142;2024-01-15T21:18:02;0.50;95.10
9329;DHT22;4703;48.748;19.142;2024-01-15T21:20:33;0.60;95.20
9329;DHT22;4703;48.748;19.142;2024-01-15T21:23:00;0.50;95.20
9329;DHT22;4703;48.748;19.142;2024-01-15T21:25:27;0.50;95.20
9329;DHT22;4703;48.748;19.142;2024-01-15T21:27:54;2.00;96.00
9329;DHT22;4703;48.748;19.142;2024-01-15T21:30:21;0.50;95.40
9329;DHT22;4703;48.748;19.142;2024-01-15T21:32:49;0.90;95.60
9329;DHT22;4703;48.748;19.142;2024-01-15T21:35:16;0.50;95.50
9329;DHT22;4703;48.748;19.142;2024-01-15T21:37:43;0.50;95.60
9329;DHT22;4703;48.748;19.142;2024-01-15T21:40:10;3.00;96.80
9329;DHT22;4703;48.748;19.142;2024-01-15T21:42:38;0.60;95.70
9329;DHT22;4703;48.748;19.142;2024-01-15T21:45:07;0.60;95.70
9329;DHT22;4703;48.748;19.142;2024-01-15T21:47:36;3.00;96.70
9329;DHT22;4703;48.748;19.142;2024-01-15T21:50:04;3.50;97.00
9329;DHT22;4703;48.748;19.142;2024-01-15T21:52:32;0.60;95.70
9329;DHT22;4703;48.748;19.142;2024-01-15T21:54:59;0.60;95.80
9329;DHT22;4703;48.748;19.142;2024-01-15T21:57:26;0.50;95.80
9329;DHT22;4703;48.748;19.142;2024-01-15T21:59:53;0.50;95.80
9329;DHT22;4703;48.748;19.142;2024-01-15T22:02:20;0.60;95.90
9329;DHT22;4703;48.748;19.142;2024-01-15T22:04:47;0.50;95.90
9329;DHT22;4703;48.748;19.142;2024-01-15T22:07:14;0.60;95.90
9329;DHT22;4703;48.748;19.142;2024-01-15T22:09:41;0.60;95.90
9329;DHT22;4703;48.748;19.142;2024-01-15T22:12:08;0.60;95.80
9329;DHT22;4703;48.748;19.142;2024-01-15T22:14:35;0.60;95.80
9329;DHT22;4703;48.748;19.142;2024-01-15T22:17:02;0.70;95.70
9329;DHT22;4703;48.748;19.142;2024-01-15T22:19:29;0.70;95.70
9329;DHT22;4703;48.748;19.142;2024-01-15T22:22:00;0.70;95.80
9329;DHT22;4703;48.748;19.142;2024-01-15T22:24:27;0.60;95.70
9329;DHT22;4703;48.748;19.142;2024-01-15T22:26:54;0.70;96.00
9329;DHT22;4703;48.748;19.142;2024-01-15T22:29:21;3.70;96.90
9329;DHT22;4703;48.748;19.142;2024-01-15T22:31:48;0.70;95.50
9329;DHT22;4703;48.748;19.142;2024-01-15T22:34:15;0.70;95.70
9329;DHT22;4703;48.748;19.142;2024-01-15T22:36:44;0.70;95.90
9329;DHT22;4703;48.748;19.142;2024-01-15T22:39:11;0.60;96.20
9329;DHT22;4703;48.748;19.142;2024-01-15T22:41:40;0.60;96.20
9329;DHT22;4703;48.748;19.142;2024-01-15T22:44:07;0.60;96.30
9329;DHT22;4703;48.748;19.142;2024-01-15T22:46:34;0.60;96.40
9329;DHT22;4703;48.748;19.142;2024-01-15T22:49:01;0.60;96.50
9329;DHT22;4703;48.748;19.142;2024-01-15T22:51:28;0.50;96.50
9329;DHT22;4703;48.748;19.142;2024-01-15T22:53:55;0.60;96.60
9329;DHT22;4703;48.748;19.142;2024-01-15T22:56:22;0.60;96.60
9329;DHT22;4703;48.748;19.142;2024-01-15T22:58:49;0.60;96.70
9329;DHT22;4703;48.748;19.142;2024-01-15T23:01:16;0.60;96.80
9329;DHT22;4703;48.748;19.142;2024-01-15T23:03:43;0.50;96.80
9329;DHT22;4703;48.748;19.142;2024-01-15T23:06:19;0.50;96.90
9329;DHT22;4703;48.748;19.142;2024-01-15T23:08:48;0.60;97.10
9329;DHT22;4703;48.748;19.142;2024-01-15T23:11:15;0.60;97.20
9329;DHT22;4703;48.748;19.142;2024-01-15T23:13:43;2.50;98.20
9329;DHT22;4703;48.748;19.142;2024-01-15T23:16:10;3.10;98.50
9329;DHT22;4703;48.748;19.142;2024-01-15T23:18:41;0.50;97.50
9329;DHT22;4703;48.748;19.142;2024-01-15T23:21:09;0.50;97.50
9329;DHT22;4703;48.748;19.142;2024-01-15T23:23:37;0.60;97.60
9329;DHT22;4703;48.748;19.142;2024-01-15T23:26:04;0.50;97.60
9329;DHT22;4703;48.748;19.142;2024-01-15T23:28:31;0.50;97.70
9329;DHT22;4703;48.748;19.142;2024-01-15T23:31:00;0.60;98.20
9329;DHT22;4703;48.748;19.142;2024-01-15T23:33:28;3.20;99.50
9329;DHT22;4703;48.748;19.142;2024-01-15T23:35:55;0.60;98.60
9329;DHT22;4703;48.748;19.142;2024-01-15T23:38:23;0.60;98.80
9329;DHT22;4703;48.748;19.142;2024-01-15T23:40:50;0.50;98.40
9329;DHT22;4703;48.748;19.142;2024-01-15T23:43:17;0.50;98.40
9329;DHT22;4703;48.748;19.142;2024-01-15T23:45:44;3.50;99.50
9329;DHT22;4703;48.748;19.142;2024-01-15T23:48:16;0.50;97.70
9329;DHT22;4703;48.748;19.142;2024-01-15T23:50:43;0.50;97.60
9329;DHT22;4703;48.748;19.142;2024-01-15T23:53:10;0.50;97.50
9329;DHT22;4703;48.748;19.142;2024-01-15T23:55:37;0.50;97.50
9329;DHT22;4703;48.748;19.142;2024-01-15T23:58:04;0.60;97.80
